createdAt,value
2019-04-22T00:02:03.923Z,7.50
2019-04-22T00:04:49.742Z,7.50
2019-04-22T00:07:28.518Z,7.50
2019-04-22T00:10:04.855Z,7.40
2019-04-22T00:12:37.340Z,7.50
2019-04-22T00:15:01.094Z,7.40
2019-04-22T00:20:11.567Z,7.30
2019-04-22T00:22:42.781Z,7.30
2019-04-22T00:25:14.381Z,7.30
2019-04-22T00:27:51.142Z,7.20
2019-04-22T00:30:18.128Z,7.20
2019-04-22T00:32:45.077Z,7.20
2019-04-22T00:35:19.817Z,7.20
2019-04-22T00:37:58.110Z,6.90
2019-04-22T00:40:32.276Z,6.80
2019-04-22T00:42:53.540Z,6.70
2019-04-22T00:45:31.195Z,6.50
2019-04-22T00:48:00.711Z,6.50
2019-04-22T00:50:33.085Z,6.60
2019-04-22T00:53:08.854Z,6.60
2019-04-22T00:55:39.166Z,6.70
2019-04-22T00:58:08.022Z,6.50
2019-04-22T01:00:44.419Z,6.30
2019-04-22T01:03:19.660Z,6.30
2019-04-22T01:05:51.470Z,6.20
2019-04-22T01:08:23.790Z,6.30
2019-04-22T01:10:59.033Z,6.30
2019-04-22T01:13:20.048Z,6.40
2019-04-22T01:16:01.204Z,6.40
2019-04-22T01:18:23.922Z,6.30
2019-04-22T01:21:16.425Z,6.20
2019-04-22T01:23:28.080Z,6.30
2019-04-22T01:25:49.366Z,6.30
2019-04-22T01:28:25.360Z,6.30
2019-04-22T01:30:50.969Z,6.30
2019-04-22T01:33:21.538Z,6.40
2019-04-22T01:36:01.477Z,6.30
2019-04-22T01:38:43.367Z,6.40
2019-04-22T01:41:16.504Z,6.30
2019-04-22T01:43:51.890Z,6.30
2019-04-22T01:46:16.911Z,6.30
2019-04-22T01:48:57.389Z,6.30
2019-04-22T01:51:28.693Z,6.30
2019-04-22T01:54:00.466Z,6.30
2019-04-22T01:56:30.327Z,6.20
2019-04-22T01:58:49.935Z,6.10
2019-04-22T02:01:35.789Z,6.10
2019-04-22T02:04:00.917Z,6.00
2019-04-22T02:06:34.898Z,6.10
2019-04-22T02:09:09.496Z,6.00
2019-04-22T02:11:40.630Z,6.00
2019-04-22T02:14:04.587Z,6.00
2019-04-22T02:19:15.687Z,5.90
2019-04-22T02:21:44.014Z,5.80
2019-04-22T02:24:15.974Z,5.70
2019-04-22T02:26:40.263Z,5.80
2019-04-22T02:29:17.154Z,5.70
2019-04-22T02:31:55.405Z,5.70
2019-04-22T02:39:23.677Z,5.60
2019-04-22T02:41:54.916Z,5.60
2019-04-22T02:44:30.469Z,5.50
2019-04-22T02:49:29.180Z,5.50
2019-04-22T02:52:07.644Z,5.50
2019-04-22T02:57:13.158Z,5.50
2019-04-22T02:59:41.277Z,5.50
2019-04-22T03:02:14.392Z,5.50
2019-04-22T03:04:45.382Z,5.40
2019-04-22T03:07:12.760Z,5.40
2019-04-22T03:09:47.804Z,5.30
2019-04-22T03:17:20.631Z,5.10
2019-04-22T03:22:28.684Z,5.10
2019-04-22T03:25:24.122Z,5.10
2019-04-22T03:27:27.664Z,5.10
2019-04-22T03:42:55.939Z,4.90
2019-04-22T03:45:26.366Z,4.80
2019-04-22T03:50:25.470Z,4.70
2019-04-22T03:53:05.908Z,4.70
2019-04-22T04:03:07.495Z,4.40
2019-04-22T04:05:49.679Z,4.50
2019-04-22T04:10:46.067Z,4.60
2019-04-22T04:13:20.951Z,4.70
2019-04-22T04:15:34.655Z,4.60
2019-04-22T04:18:26.555Z,4.70
2019-04-22T04:23:30.987Z,4.70
2019-04-22T04:28:43.370Z,4.70
2019-04-22T04:31:09.876Z,4.70
2019-04-22T04:33:36.205Z,4.70
2019-04-22T04:36:02.601Z,4.70
2019-04-22T04:38:42.981Z,4.70
2019-04-22T04:41:06.465Z,4.70
2019-04-22T04:48:55.694Z,4.80
2019-04-22T04:51:16.282Z,4.90
2019-04-22T04:53:41.475Z,4.90
2019-04-22T04:59:02.384Z,5.00
2019-04-22T05:06:21.643Z,5.20
2019-04-22T05:11:42.993Z,5.30
2019-04-22T05:13:57.711Z,5.40
2019-04-22T05:21:22.335Z,5.60
2019-04-22T05:24:06.591Z,5.60
2019-04-22T05:26:32.966Z,5.70
2019-04-22T05:29:05.534Z,5.80
2019-04-22T05:31:38.660Z,5.90
2019-04-22T05:34:05.531Z,5.90
2019-04-22T05:36:34.441Z,6.00
2019-04-22T05:39:09.142Z,6.00
2019-04-22T05:44:10.772Z,6.20
2019-04-22T05:46:45.685Z,6.40
2019-04-22T05:49:22.525Z,6.50
2019-04-22T05:51:43.664Z,6.60
2019-04-22T05:56:40.919Z,6.80
2019-04-22T05:59:17.636Z,6.90
2019-04-22T06:04:23.254Z,7.10
2019-04-22T06:06:54.241Z,7.30
2019-04-22T06:09:30.159Z,7.40
2019-04-22T06:11:55.635Z,7.50
2019-04-22T06:14:30.808Z,7.60
2019-04-22T06:17:08.311Z,7.80
2019-04-22T06:19:38.016Z,7.90
2019-04-22T06:22:19.859Z,8.00
2019-04-22T06:24:42.399Z,8.00
2019-04-22T06:27:18.748Z,8.20
2019-04-22T06:29:41.448Z,8.30
2019-04-22T06:32:28.102Z,8.50
2019-04-22T06:34:48.659Z,8.80
2019-04-22T06:37:20.711Z,9.00
2019-04-22T06:40:11.021Z,9.10
2019-04-22T06:42:21.948Z,9.20
2019-04-22T06:44:52.636Z,9.40
2019-04-22T06:47:40.084Z,9.50
2019-04-22T06:49:55.582Z,9.70
2019-04-22T06:52:22.398Z,9.80
2019-04-22T06:54:59.558Z,9.90
2019-04-22T06:57:30.485Z,10.00
2019-04-22T07:00:08.735Z,10.20
2019-04-22T07:02:46.473Z,10.50
2019-04-22T07:05:07.778Z,10.70
2019-04-22T07:07:39.972Z,11.00
2019-04-22T07:10:23.653Z,11.30
2019-04-22T07:12:41.768Z,11.30
2019-04-22T07:15:23.228Z,11.30
2019-04-22T07:17:50.884Z,11.30
2019-04-22T07:20:18.011Z,11.50
2019-04-22T07:22:45.588Z,11.70
2019-04-22T07:25:15.865Z,11.70
2019-04-22T07:27:52.636Z,11.80
2019-04-22T07:30:25.329Z,11.80
2019-04-22T07:35:28.946Z,12.00
2019-04-22T07:37:53.913Z,12.20
2019-04-22T07:40:37.369Z,12.20
2019-04-22T07:43:08.756Z,12.30
2019-04-22T07:45:36.095Z,12.20
2019-04-22T07:48:21.915Z,12.50
2019-04-22T07:50:50.683Z,12.80
2019-04-22T07:53:10.695Z,12.80
2019-04-22T07:55:39.758Z,12.90
2019-04-22T08:00:53.348Z,13.20
2019-04-22T08:03:22.092Z,13.10
2019-04-22T08:06:02.569Z,13.20
2019-04-22T08:10:57.780Z,13.20
2019-04-22T08:13:26.958Z,13.30
2019-04-22T08:15:58.245Z,13.60
2019-04-22T08:18:28.965Z,13.60
2019-04-22T08:20:58.369Z,13.60
2019-04-22T08:23:31.367Z,13.60
2019-04-22T08:26:03.429Z,13.60
2019-04-22T08:28:37.878Z,13.60
2019-04-22T08:31:10.861Z,13.80
2019-04-22T08:33:39.906Z,13.90
2019-04-22T08:36:18.016Z,14.00
2019-04-22T08:38:46.949Z,14.30
2019-04-22T08:41:31.862Z,14.30
2019-04-22T08:48:55.853Z,14.50
2019-04-22T08:51:24.963Z,14.50
2019-04-22T08:54:09.928Z,14.50
2019-04-22T08:56:35.125Z,14.60
2019-04-22T09:01:41.940Z,14.50
2019-04-22T09:04:03.336Z,14.50
2019-04-22T09:06:49.488Z,14.60
2019-04-22T09:09:09.670Z,14.50
2019-04-22T09:11:44.931Z,14.60
2019-04-22T09:14:15.678Z,14.70
2019-04-22T09:16:42.769Z,14.70
2019-04-22T09:19:12.300Z,15.00
2019-04-22T09:21:54.413Z,15.20
2019-04-22T09:24:16.825Z,15.40
2019-04-22T09:26:47.676Z,15.30
2019-04-22T09:31:57.007Z,15.20
2019-04-22T09:34:23.451Z,15.30
2019-04-22T09:36:58.235Z,15.50
2019-04-22T09:39:31.301Z,15.50
2019-04-22T09:41:59.796Z,15.60
2019-04-22T09:44:36.199Z,15.60
2019-04-22T09:47:09.619Z,15.60
2019-04-22T09:49:44.757Z,15.70
2019-04-22T09:52:10.136Z,16.10
2019-04-22T09:54:49.564Z,16.20
2019-04-22T09:57:16.945Z,16.10
2019-04-22T09:59:43.670Z,16.50
2019-04-22T10:04:48.364Z,16.60
2019-04-22T10:07:21.036Z,16.50
2019-04-22T10:12:29.980Z,16.60
2019-04-22T10:17:25.866Z,16.70
2019-04-22T10:19:57.900Z,16.60
2019-04-22T10:22:36.653Z,17.00
2019-04-22T10:27:32.700Z,17.00
2019-04-22T10:30:21.994Z,17.00
2019-04-22T10:32:39.045Z,17.60
2019-04-22T10:35:05.042Z,17.90
2019-04-22T10:37:32.244Z,17.70
2019-04-22T10:40:05.779Z,17.60
2019-04-22T10:42:43.442Z,17.40
2019-04-22T10:45:14.667Z,17.50
2019-04-22T10:47:45.852Z,17.90
2019-04-22T10:50:16.651Z,18.00
2019-04-22T10:52:47.702Z,17.90
2019-04-22T10:55:19.263Z,18.10
2019-04-22T10:57:50.596Z,18.00
2019-04-22T11:00:21.856Z,18.60
2019-04-22T11:02:51.896Z,18.60
2019-04-22T11:05:22.030Z,18.50
2019-04-22T11:07:57.925Z,18.50
2019-04-22T11:10:41.228Z,19.10
2019-04-22T11:12:56.770Z,19.00
2019-04-22T11:15:26.826Z,18.50
2019-04-22T11:17:57.693Z,18.60
2019-04-22T11:20:27.604Z,18.80
2019-04-22T11:22:58.503Z,19.30
2019-04-22T11:25:29.837Z,19.00
2019-04-22T11:28:00.106Z,19.10
2019-04-22T11:30:30.339Z,19.30
2019-04-22T11:33:00.487Z,19.70
2019-04-22T11:35:31.948Z,20.20
2019-04-22T11:38:04.461Z,20.40
2019-04-22T11:40:39.895Z,20.20
2019-04-22T11:43:07.971Z,19.70
2019-04-22T11:45:39.438Z,19.50
2019-04-22T11:48:11.047Z,19.90
2019-04-22T11:50:42.081Z,19.90
2019-04-22T11:53:13.141Z,19.40
2019-04-22T11:55:44.595Z,19.60
2019-04-22T11:58:14.985Z,19.80
2019-04-22T12:00:45.161Z,19.80
2019-04-22T12:03:16.707Z,20.20
2019-04-22T12:05:48.058Z,20.30
2019-04-22T12:08:18.165Z,20.60
2019-04-22T12:10:54.236Z,20.70
2019-04-22T12:13:20.019Z,20.40
2019-04-22T12:15:51.177Z,20.00
2019-04-22T12:18:22.895Z,20.10
2019-04-22T12:20:53.216Z,20.10
2019-04-22T12:23:23.268Z,20.70
2019-04-22T12:25:59.940Z,21.20
2019-04-22T12:28:24.949Z,21.10
2019-04-22T12:30:55.334Z,21.10
2019-04-22T12:33:25.525Z,21.10
2019-04-22T12:35:56.742Z,20.90
2019-04-22T12:38:27.414Z,20.40
2019-04-22T12:41:04.149Z,20.70
2019-04-22T12:43:29.838Z,20.70
2019-04-22T12:46:00.759Z,20.70
2019-04-22T12:48:31.025Z,20.30
2019-04-22T12:51:01.082Z,20.50
2019-04-22T12:53:31.931Z,20.50
2019-04-22T12:56:02.958Z,21.00
2019-04-22T12:58:33.864Z,20.80
2019-04-22T13:01:04.971Z,20.80
2019-04-22T13:03:36.139Z,21.30
2019-04-22T13:06:07.691Z,21.10
2019-04-22T13:08:38.166Z,21.50
2019-04-22T13:11:12.359Z,21.70
2019-04-22T13:13:40.919Z,21.60
2019-04-22T13:16:10.991Z,21.60
2019-04-22T13:18:49.270Z,22.00
2019-04-22T13:21:13.097Z,21.70
2019-04-22T13:23:44.430Z,21.60
2019-04-22T13:26:15.086Z,22.10
2019-04-22T13:28:45.210Z,22.10
2019-04-22T13:31:16.067Z,22.50
2019-04-22T13:33:49.930Z,22.10
2019-04-22T13:36:22.049Z,21.80
2019-04-22T13:38:51.297Z,21.90
2019-04-22T13:41:31.772Z,21.50
2019-04-22T13:43:53.860Z,22.30
2019-04-22T13:46:24.080Z,21.80
2019-04-22T13:49:26.999Z,21.90
2019-04-22T13:52:04.163Z,22.10
2019-04-22T13:56:50.556Z,22.00
2019-04-22T13:59:11.536Z,22.40
2019-04-22T14:01:52.417Z,22.40
2019-04-22T14:04:24.800Z,21.70
2019-04-22T14:06:54.802Z,21.60
2019-04-22T14:09:26.331Z,21.80
2019-04-22T14:12:01.933Z,22.20
2019-04-22T14:14:28.175Z,21.50
2019-04-22T14:16:58.814Z,21.30
2019-04-22T14:19:29.863Z,21.40
2019-04-22T14:21:59.871Z,21.30
2019-04-22T14:24:30.055Z,21.10
2019-04-22T14:27:19.261Z,21.40
2019-04-22T14:29:31.775Z,21.10
2019-04-22T14:32:09.251Z,21.30
2019-04-22T14:34:34.256Z,21.00
2019-04-22T14:37:05.488Z,21.00
2019-04-22T14:39:35.866Z,20.90
2019-04-22T14:44:15.606Z,20.60
2019-04-22T14:47:34.820Z,20.70
2019-04-22T14:50:07.648Z,20.60
2019-04-22T14:52:38.093Z,20.90
2019-04-22T14:54:57.032Z,21.00
2019-04-22T14:57:16.918Z,20.60
2019-04-22T14:59:48.273Z,20.50
2019-04-22T15:02:19.591Z,20.20
2019-04-22T15:04:50.067Z,20.50
2019-04-22T15:07:21.092Z,20.20
2019-04-22T15:09:52.274Z,20.50
2019-04-22T15:12:31.020Z,20.50
2019-04-22T15:14:55.502Z,20.00
2019-04-22T15:17:27.184Z,20.40
2019-04-22T15:19:58.765Z,20.10
2019-04-22T15:22:28.706Z,19.80
2019-04-22T15:24:58.679Z,20.30
2019-04-22T15:27:30.860Z,20.20
2019-04-22T15:30:01.325Z,20.20
2019-04-22T15:32:33.529Z,20.30
2019-04-22T15:35:05.006Z,19.90
2019-04-22T15:37:35.176Z,20.30
2019-04-22T15:40:09.005Z,19.90
2019-04-22T15:42:42.837Z,20.10
2019-04-22T15:45:14.112Z,20.20
2019-04-22T15:47:43.968Z,19.20
2019-04-22T15:50:16.088Z,19.50
2019-04-22T15:52:51.303Z,19.50
2019-04-22T15:55:18.732Z,19.10
2019-04-22T15:57:49.883Z,19.30
2019-04-22T16:00:33.150Z,19.10
2019-04-22T16:02:52.012Z,19.00
2019-04-22T16:05:22.483Z,18.80
2019-04-22T16:07:52.972Z,19.10
2019-04-22T16:10:23.983Z,19.20
2019-04-22T16:13:05.415Z,18.80
2019-04-22T16:15:28.652Z,18.50
2019-04-22T16:18:01.592Z,18.40
2019-04-22T16:20:30.355Z,18.30
2019-04-22T16:23:10.933Z,18.30
2019-04-22T16:25:43.027Z,18.10
2019-04-22T16:28:13.240Z,18.30
2019-04-22T16:30:43.657Z,17.90
2019-04-22T16:33:15.188Z,17.50
2019-04-22T16:35:46.667Z,17.50
2019-04-22T16:38:16.965Z,17.50
2019-04-22T16:40:48.470Z,17.00
2019-04-22T16:43:19.471Z,17.30
2019-04-22T16:45:51.696Z,16.90
2019-04-22T16:48:22.006Z,17.00
2019-04-22T16:50:52.727Z,17.10
2019-04-22T16:53:25.148Z,17.10
2019-04-22T16:55:55.227Z,17.00
2019-04-22T16:58:25.289Z,16.40
2019-04-22T17:00:56.499Z,16.50
2019-04-22T17:03:31.075Z,16.70
2019-04-22T17:06:19.483Z,16.60
2019-04-22T17:08:50.711Z,16.40
2019-04-22T17:11:22.051Z,16.20
2019-04-22T17:13:53.026Z,16.20
2019-04-22T17:16:24.344Z,16.00
2019-04-22T17:18:54.497Z,15.70
2019-04-22T17:21:25.675Z,15.50
2019-04-22T17:23:55.993Z,15.30
2019-04-22T17:26:26.487Z,15.10
2019-04-22T17:28:59.599Z,15.00
2019-04-22T17:31:29.297Z,14.90
2019-04-22T17:33:59.306Z,14.70
2019-04-22T17:36:29.838Z,14.50
2019-04-22T17:39:15.894Z,14.60
2019-04-22T17:41:53.991Z,14.20
2019-04-22T17:44:41.300Z,14.10
2019-04-22T17:46:58.824Z,14.20
2019-04-22T17:49:50.307Z,14.00
2019-04-22T17:54:50.271Z,13.90
2019-04-22T17:57:25.355Z,13.80
2019-04-22T18:00:08.787Z,13.70
2019-04-22T18:02:25.057Z,13.70
2019-04-22T18:04:46.823Z,13.60
2019-04-22T18:07:35.814Z,13.50
2019-04-22T18:12:38.268Z,13.40
2019-04-22T18:15:17.778Z,13.30
2019-04-22T18:17:41.322Z,13.20
2019-04-22T18:20:04.735Z,13.20
2019-04-22T18:22:34.717Z,13.10
2019-04-22T18:25:04.935Z,12.90
2019-04-22T18:30:11.463Z,12.90
2019-04-22T18:32:46.734Z,12.90
2019-04-22T18:35:14.208Z,12.80
2019-04-22T18:37:54.801Z,12.70
2019-04-22T18:40:24.519Z,12.60
2019-04-22T18:42:59.671Z,12.60
2019-04-22T18:45:43.789Z,12.50
2019-04-22T18:47:54.927Z,12.40
2019-04-22T18:50:56.371Z,12.40
2019-04-22T18:53:27.343Z,12.40
2019-04-22T18:55:55.512Z,12.30
2019-04-22T18:58:27.529Z,12.30
2019-04-22T19:00:48.256Z,12.30
2019-04-22T19:03:25.315Z,12.30
2019-04-22T19:06:27.390Z,12.10
2019-04-22T19:08:44.807Z,12.10
2019-04-22T19:11:16.657Z,12.00
2019-04-22T19:16:34.535Z,11.90
2019-04-22T19:18:56.465Z,12.00
2019-04-22T19:21:21.807Z,11.90
2019-04-22T19:23:54.022Z,11.90
2019-04-22T19:26:40.954Z,11.80
2019-04-22T19:29:13.385Z,11.80
2019-04-22T19:31:31.333Z,11.70
2019-04-22T19:34:03.292Z,11.70
2019-04-22T19:36:36.293Z,11.60
2019-04-22T19:38:58.753Z,11.60
2019-04-22T19:41:57.987Z,11.50
2019-04-22T19:44:10.249Z,11.50
2019-04-22T19:46:42.481Z,11.50
2019-04-22T19:49:22.086Z,11.50
2019-04-22T19:51:53.953Z,11.50
2019-04-22T19:54:14.054Z,11.50
2019-04-22T19:56:38.680Z,11.50
2019-04-22T19:59:19.659Z,11.50
2019-04-22T20:01:55.359Z,11.50
2019-04-22T20:04:43.025Z,11.40
2019-04-22T20:07:06.306Z,11.50
2019-04-22T20:09:35.135Z,11.50
2019-04-22T20:12:04.388Z,11.50
2019-04-22T20:14:43.577Z,11.50
2019-04-22T20:17:00.658Z,11.50
2019-04-22T20:19:45.620Z,11.50
2019-04-22T20:22:12.836Z,11.50
2019-04-22T20:24:28.523Z,11.50
2019-04-22T20:27:18.927Z,11.50
2019-04-22T20:29:47.793Z,11.50
2019-04-22T20:32:18.374Z,11.60
2019-04-22T20:35:02.660Z,11.60
2019-04-22T20:37:33.275Z,11.70
2019-04-22T20:39:53.090Z,11.70
2019-04-22T20:42:38.684Z,11.70
2019-04-22T20:45:01.862Z,11.70
2019-04-22T20:47:21.743Z,11.60
2019-04-22T20:50:02.110Z,11.60
2019-04-22T20:52:44.776Z,11.60
2019-04-22T20:55:00.058Z,11.60
2019-04-22T20:57:38.286Z,11.60
2019-04-22T21:00:05.396Z,11.60
2019-04-22T21:02:32.639Z,11.60
2019-04-22T21:04:59.078Z,11.60
2019-04-22T21:07:37.077Z,11.50
2019-04-22T21:10:08.993Z,11.50
2019-04-22T21:12:36.262Z,11.50
2019-04-22T21:15:25.511Z,11.50
2019-04-22T21:17:45.819Z,11.60
2019-04-22T21:20:30.432Z,11.60
2019-04-22T21:22:58.837Z,11.60
2019-04-22T21:25:17.786Z,11.60
2019-04-22T21:27:56.840Z,11.60
2019-04-22T21:30:29.226Z,11.50
2019-04-22T21:32:58.006Z,11.50
2019-04-22T21:35:55.027Z,11.50
2019-04-22T21:38:11.316Z,11.40
2019-04-22T21:40:39.754Z,11.40
2019-04-22T21:43:16.232Z,11.40
2019-04-22T21:45:37.673Z,11.40
2019-04-22T21:50:57.437Z,11.30
2019-04-22T21:53:22.796Z,11.20
2019-04-22T21:56:01.368Z,11.20
2019-04-22T21:58:26.119Z,11.20
2019-04-22T22:01:21.890Z,11.10
2019-04-22T22:03:55.298Z,11.10
2019-04-22T22:06:17.278Z,11.10
2019-04-22T22:08:57.951Z,11.00
2019-04-22T22:11:27.819Z,10.90
2019-04-22T22:13:59.485Z,11.00
2019-04-22T22:16:25.107Z,10.90
2019-04-22T22:19:02.267Z,10.80
2019-04-22T22:21:43.895Z,10.80
2019-04-22T22:24:10.061Z,10.80
2019-04-22T22:26:42.568Z,10.80
2019-04-22T22:31:47.068Z,10.70
2019-04-22T22:34:13.947Z,10.60
2019-04-22T22:36:36.381Z,10.60
2019-04-22T22:39:09.983Z,10.50
2019-04-22T22:41:26.110Z,10.50
2019-04-22T22:44:03.216Z,10.50
2019-04-22T22:46:37.392Z,10.40
2019-04-22T22:49:22.961Z,10.40
2019-04-22T22:51:53.224Z,10.40
2019-04-22T22:54:23.669Z,10.40
2019-04-22T22:57:17.821Z,10.30
2019-04-22T22:59:29.936Z,10.20
2019-04-22T23:01:55.697Z,10.20
2019-04-22T23:04:35.592Z,10.30
2019-04-22T23:07:06.806Z,10.30
2019-04-22T23:09:30.752Z,10.30
2019-04-22T23:12:31.666Z,10.30
2019-04-22T23:14:38.193Z,10.40
2019-04-22T23:16:55.106Z,10.40
2019-04-22T23:19:19.896Z,10.30
2019-04-22T23:21:54.428Z,10.30
2019-04-22T23:24:48.161Z,10.30
2019-04-22T23:27:42.104Z,10.30
2019-04-22T23:30:21.515Z,10.20
2019-04-22T23:33:03.341Z,10.30
2019-04-22T23:35:36.702Z,10.30
2019-04-22T23:38:13.000Z,10.30
2019-04-22T23:40:44.445Z,10.30
2019-04-22T23:43:23.747Z,10.30
2019-04-22T23:45:56.657Z,10.30
2019-04-22T23:48:20.737Z,10.30
2019-04-22T23:50:57.301Z,10.30
2019-04-22T23:53:47.945Z,10.20
2019-04-22T23:56:12.596Z,10.20
